Time,TemperatureF,DewpointF,PressureIn,WindDirection,WindDirectionDegrees,WindSpeedMPH,WindSpeedGustMPH,Humidity,HourlyPrecipIn,Conditions,Clouds,dailyrainin,SolarRadiationWatts/m^2,SoftwareType,DateUTC
2014-02-25 00:01:00,35.9,31.5,30.06,East,79,1.0,1.0,84,0.00,,---,0.00,0.00,VWS V14.01,2014-02-25 06:01:00,
2014-02-25 00:06:00,35.8,31.7,30.06,ENE,58,2.0,3.0,85,0.00,,---,0.00,0.00,VWS V14.01,2014-02-25 06:06:00,
2014-02-25 00:11:00,35.7,31.6,30.06,NE,46,2.0,2.0,85,0.00,,---,0.00,0.00,VWS V14.01,2014-02-25 06:11:00,
2014-02-25 00:16:00,35.6,31.5,30.06,NNE,15,3.0,3.0,85,0.00,,---,0.00,0.00,VWS V14.01,2014-02-25 06:16:00,
2014-02-25 00:21:00,35.3,31.5,30.06,NNE,15,2.0,3.0,86,0.00,,---,0.00,0.00,VWS V14.01,2014-02-25 06:21:00,
2014-02-25 00:26:00,35.2,31.4,30.06,NNE,15,1.0,2.0,86,0.00,,---,0.00,0.00,VWS V14.01,2014-02-25 06:26:00,
2014-02-25 00:31:00,35.0,31.2,30.07,NNE,15,1.0,1.0,86,0.00,,---,0.00,0.00,VWS V14.01,2014-02-25 06:31:00,
2014-02-25 00:36:00,34.9,31.1,30.07,NNE,15,1.0,2.0,86,0.00,,---,0.00,0.00,VWS V14.01,2014-02-25 06:36:00,
2014-02-25 00:41:00,34.7,31.0,30.07,NNE,15,1.0,1.0,86,0.00,,---,0.00,0.00,VWS V14.01,2014-02-25 06:41:00,
2014-02-25 00:46:00,34.5,30.8,30.08,NNE,15,1.0,2.0,86,0.00,,---,0.00,0.00,VWS V14.01,2014-02-25 06:46:00,
2014-02-25 00:51:00,34.3,30.6,30.08,NNE,15,2.0,3.0,86,0.00,,---,0.00,0.00,VWS V14.01,2014-02-25 06:51:00,
2014-02-25 00:56:00,34.3,30.8,30.09,NNE,15,2.0,2.0,87,0.00,,---,0.00,0.00,VWS V14.01,2014-02-25 06:56:00,
2014-02-25 01:01:00,34.2,30.7,30.09,NNE,15,2.0,2.0,87,0.00,,---,0.00,0.00,VWS V14.01,2014-02-25 07:01:00,
2014-02-25 01:07:00,34.0,30.5,30.09,NNE,15,2.0,3.0,87,0.00,,---,0.00,0.00,VWS V14.01,2014-02-25 07:07:00,
2014-02-25 01:08:00,34.1,30.6,30.09,NNE,15,2.0,2.0,87,0.00,,---,0.00,0.00,VWS V14.01,2014-02-25 07:08:00,
2014-02-25 01:13:00,33.9,30.5,30.09,NNE,15,1.0,1.0,87,0.00,,---,0.00,0.00,VWS V14.01,2014-02-25 07:13:00,
2014-02-25 01:18:00,33.8,30.4,30.09,NNE,15,1.0,1.0,87,0.00,,---,0.00,0.00,VWS V14.01,2014-02-25 07:18:00,
2014-02-25 01:23:00,33.7,30.2,30.09,NNE,15,1.0,2.0,87,0.00,,---,0.00,0.00,VWS V14.01,2014-02-25 07:23:00,
2014-02-25 01:28:00,33.6,30.1,30.09,NNE,15,1.0,1.0,87,0.00,,---,0.00,0.00,VWS V14.01,2014-02-25 07:28:00,
2014-02-25 01:33:00,33.4,30.0,30.09,NNE,15,2.0,3.0,87,0.00,,---,0.00,0.00,VWS V14.01,2014-02-25 07:33:00,
2014-02-25 01:38:00,33.2,29.8,30.10,NNE,15,2.0,2.0,87,0.00,,---,0.00,0.00,VWS V14.01,2014-02-25 07:38:00,
2014-02-25 01:43:00,33.1,29.7,30.10,NNE,15,2.0,2.0,87,0.00,,---,0.00,0.00,VWS V14.01,2014-02-25 07:43:00,
2014-02-25 01:48:00,33.0,29.6,30.10,NNE,15,2.0,2.0,87,0.00,,---,0.00,0.00,VWS V14.01,2014-02-25 07:48:00,
2014-02-25 01:53:00,32.9,29.5,30.10,North,360,4.0,5.0,87,0.00,,---,0.00,0.00,VWS V14.01,2014-02-25 07:53:00,
2014-02-25 01:58:00,32.7,29.5,30.10,North,5,3.0,3.0,88,0.00,,---,0.00,0.00,VWS V14.01,2014-02-25 07:58:00,
2014-02-25 02:03:00,32.7,29.5,30.11,North,5,1.0,2.0,88,0.00,,---,0.00,0.00,VWS V14.01,2014-02-25 08:03:00,
2014-02-25 02:08:00,33.0,29.8,30.11,North,5,1.0,2.0,88,0.00,,---,0.00,0.00,VWS V14.01,2014-02-25 08:08:00,
2014-02-25 02:13:00,33.1,29.9,30.11,North,5,0.0,1.0,88,0.00,,---,0.00,0.00,VWS V14.01,2014-02-25 08:13:00,
2014-02-25 02:18:00,33.2,30.0,30.11,North,5,1.0,1.0,88,0.00,,---,0.00,0.00,VWS V14.01,2014-02-25 08:18:00,
2014-02-25 02:23:00,33.4,30.2,30.11,North,5,2.0,2.0,88,0.00,,---,0.00,0.00,VWS V14.01,2014-02-25 08:23:00,
2014-02-25 02:28:00,33.6,30.4,30.11,North,5,2.0,2.0,88,0.00,,---,0.00,0.00,VWS V14.01,2014-02-25 08:28:00,
2014-02-25 02:33:00,33.8,30.6,30.11,North,5,2.0,2.0,88,0.00,,---,0.00,0.00,VWS V14.01,2014-02-25 08:33:00,
2014-02-25 02:38:00,34.1,31.2,30.11,North,349,3.0,4.0,89,0.00,,---,0.00,0.00,VWS V14.01,2014-02-25 08:38:00,
2014-02-25 02:43:00,34.4,31.5,30.12,North,349,2.0,2.0,89,0.00,,---,0.00,0.00,VWS V14.01,2014-02-25 08:43:00,
2014-02-25 02:48:00,34.7,31.8,30.11,North,355,5.0,5.0,89,0.00,,---,0.00,0.00,VWS V14.01,2014-02-25 08:48:00,
2014-02-25 02:53:00,34.9,32.0,30.11,North,5,2.0,3.0,89,0.00,,---,0.00,0.00,VWS V14.01,2014-02-25 08:53:00,
2014-02-25 02:58:00,35.1,32.2,30.11,North,360,4.0,4.0,89,0.00,,---,0.00,0.00,VWS V14.01,2014-02-25 08:58:00,
2014-02-25 03:03:00,35.3,32.4,30.11,NNW,336,2.0,4.0,89,0.00,,---,0.00,0.00,VWS V14.01,2014-02-25 09:03:00,
2014-02-25 03:08:00,35.3,32.4,30.12,NNW,342,4.0,4.0,89,0.00,,---,0.00,0.00,VWS V14.01,2014-02-25 09:08:00,
2014-02-25 03:13:00,35.5,32.6,30.13,NW,325,4.0,4.0,89,0.00,,---,0.00,0.00,VWS V14.01,2014-02-25 09:13:00,
2014-02-25 03:18:00,35.7,32.8,30.13,North,355,4.0,5.0,89,0.00,,---,0.00,0.00,VWS V14.01,2014-02-25 09:18:00,
2014-02-25 03:23:00,36.1,33.2,30.12,North,5,5.0,6.0,89,0.00,,---,0.00,0.00,VWS V14.01,2014-02-25 09:23:00,
2014-02-25 03:28:00,36.2,33.3,30.12,NNW,346,3.0,3.0,89,0.00,,---,0.00,0.00,VWS V14.01,2014-02-25 09:28:00,
2014-02-25 03:33:00,36.3,33.4,30.12,NNW,346,3.0,4.0,89,0.00,,---,0.00,0.00,VWS V14.01,2014-02-25 09:33:00,
2014-02-25 03:38:00,36.6,33.7,30.12,North,350,6.0,6.0,89,0.00,,---,0.00,0.00,VWS V14.01,2014-02-25 09:38:00,
2014-02-25 03:43:00,36.8,33.9,30.13,NW,323,3.0,4.0,89,0.00,,---,0.00,0.00,VWS V14.01,2014-02-25 09:43:00,
2014-02-25 03:48:00,37.0,34.1,30.13,NW,320,5.0,5.0,89,0.00,,---,0.00,0.00,VWS V14.01,2014-02-25 09:48:00,
2014-02-25 03:53:00,37.2,34.3,30.14,NNW,338,4.0,6.0,89,0.00,,---,0.00,0.00,VWS V14.01,2014-02-25 09:53:00,
2014-02-25 03:58:00,37.5,34.6,30.14,NNW,345,5.0,5.0,89,0.00,,---,0.00,0.00,VWS V14.01,2014-02-25 09:58:00,
2014-02-25 04:03:00,37.7,34.8,30.14,North,5,4.0,6.0,89,0.00,,---,0.00,0.00,VWS V14.01,2014-02-25 10:03:00,
2014-02-25 04:08:00,38.0,35.0,30.14,North,5,5.0,5.0,89,0.00,,---,0.00,0.00,VWS V14.01,2014-02-25 10:08:00,
2014-02-25 04:13:00,38.3,35.3,30.14,North,5,5.0,5.0,89,0.00,,---,0.00,0.00,VWS V14.01,2014-02-25 10:13:00,
2014-02-25 04:18:00,38.5,35.3,30.14,NNW,335,3.0,4.0,88,0.00,,---,0.00,0.00,VWS V14.01,2014-02-25 10:18:00,
2014-02-25 04:23:00,38.8,35.6,30.13,North,360,6.0,6.0,88,0.00,,---,0.00,0.00,VWS V14.01,2014-02-25 10:23:00,
2014-02-25 04:28:00,39.2,36.0,30.12,North,355,5.0,5.0,88,0.00,,---,0.00,0.00,VWS V14.01,2014-02-25 10:28:00,
2014-02-25 04:33:00,39.5,36.0,30.13,North,5,12.0,13.0,87,0.00,,---,0.00,0.00,VWS V14.01,2014-02-25 10:33:00,
2014-02-25 04:38:00,39.7,35.9,30.13,North,350,5.0,8.0,86,0.00,,---,0.00,0.00,VWS V14.01,2014-02-25 10:38:00,
2014-02-25 04:43:00,39.8,35.7,30.13,NNE,16,6.0,10.0,85,0.00,,---,0.00,0.00,VWS V14.01,2014-02-25 10:43:00,
2014-02-25 04:48:00,39.9,35.5,30.14,North,11,3.0,9.0,84,0.00,,---,0.00,0.00,VWS V14.01,2014-02-25 10:48:00,
2014-02-25 04:53:00,40.0,35.3,30.14,North,5,10.0,13.0,83,0.00,,---,0.00,0.00,VWS V14.01,2014-02-25 10:53:00,
2014-02-25 04:58:00,40.3,35.2,30.14,North,11,11.0,13.0,82,0.00,,---,0.00,0.00,VWS V14.01,2014-02-25 10:58:00,
2014-02-25 05:03:00,40.4,35.3,30.14,North,360,4.0,12.0,82,0.00,,---,0.00,0.00,VWS V14.01,2014-02-25 11:03:00,
2014-02-25 05:08:00,40.6,35.2,30.14,NNW,336,7.0,13.0,81,0.00,,---,0.00,0.00,VWS V14.01,2014-02-25 11:08:00,
2014-02-25 05:13:00,40.7,35.0,30.14,NNE,31,5.0,13.0,80,0.00,,---,0.00,0.00,VWS V14.01,2014-02-25 11:13:00,
2014-02-25 05:18:00,40.7,35.0,30.14,North,10,10.0,12.0,80,0.00,,---,0.00,0.00,VWS V14.01,2014-02-25 11:18:00,
2014-02-25 05:23:00,40.6,34.9,30.14,North,355,5.0,9.0,80,0.00,,---,0.00,0.00,VWS V14.01,2014-02-25 11:23:00,
2014-02-25 05:25:00,40.6,34.9,30.14,NNW,338,6.0,7.0,80,0.00,,---,0.00,0.00,VWS V14.01,2014-02-25 11:25:00,
2014-02-25 05:30:00,40.6,34.6,30.14,North,355,6.0,7.0,79,0.00,,---,0.00,0.00,VWS V14.01,2014-02-25 11:30:00,
2014-02-25 05:35:00,40.6,34.9,30.14,NNW,341,8.0,10.0,80,0.00,,---,0.00,0.00,VWS V14.01,2014-02-25 11:35:00,
2014-02-25 05:40:00,40.3,34.6,30.14,North,350,4.0,10.0,80,0.00,,---,0.00,0.00,VWS V14.01,2014-02-25 11:40:00,
2014-02-25 05:45:00,40.0,34.3,30.14,NNE,21,6.0,10.0,80,0.00,,---,0.00,0.00,VWS V14.01,2014-02-25 11:45:00,
2014-02-25 05:50:00,39.8,34.1,30.14,NNE,15,4.0,11.0,80,0.00,,---,0.00,0.00,VWS V14.01,2014-02-25 11:50:00,
2014-02-25 05:55:00,39.6,33.6,30.14,North,5,4.0,5.0,79,0.00,,---,0.00,0.00,VWS V14.01,2014-02-25 11:55:00,
2014-02-25 06:00:00,39.3,33.7,30.14,NNW,332,6.0,7.0,80,0.00,,---,0.00,0.00,VWS V14.01,2014-02-25 12:00:00,
2014-02-25 06:05:00,39.1,33.5,30.14,NNW,343,6.0,6.0,80,0.00,,---,0.00,0.00,VWS V14.01,2014-02-25 12:05:00,
2014-02-25 06:10:00,38.7,33.1,30.14,NNW,344,3.0,5.0,80,0.00,,---,0.00,0.00,VWS V14.01,2014-02-25 12:10:00,
2014-02-25 06:15:00,38.3,33.0,30.14,North,360,5.0,6.0,81,0.00,,---,0.00,0.00,VWS V14.01,2014-02-25 12:15:00,
2014-02-25 06:20:00,37.9,32.6,30.15,NW,322,7.0,7.0,81,0.00,,---,0.00,0.00,VWS V14.01,2014-02-25 12:20:00,
2014-02-25 06:25:00,37.6,32.3,30.15,NW,320,6.0,6.0,81,0.00,,---,0.00,0.00,VWS V14.01,2014-02-25 12:25:00,
2014-02-25 06:30:00,37.6,32.6,30.15,North,355,4.0,6.0,82,0.00,,---,0.00,0.00,VWS V14.01,2014-02-25 12:30:00,
2014-02-25 06:35:00,37.7,32.7,30.15,North,355,4.0,6.0,82,0.00,,---,0.00,0.00,VWS V14.01,2014-02-25 12:35:00,
2014-02-25 06:40:00,37.9,32.9,30.15,NNW,338,4.0,6.0,82,0.00,,---,0.00,0.00,VWS V14.01,2014-02-25 12:40:00,
2014-02-25 06:45:00,38.0,33.0,30.15,NNE,18,6.0,6.0,82,0.00,,---,0.00,0.00,VWS V14.01,2014-02-25 12:45:00,
2014-02-25 06:50:00,38.5,33.2,30.16,North,9,9.0,11.0,81,0.00,,---,0.00,0.00,VWS V14.01,2014-02-25 12:50:00,
2014-02-25 06:55:00,38.9,33.0,30.16,North,360,4.0,7.0,79,0.00,,---,0.00,0.00,VWS V14.01,2014-02-25 12:55:00,
2014-02-25 07:00:00,39.1,33.2,30.16,NNE,22,5.0,11.0,79,0.00,,---,0.00,0.00,VWS V14.01,2014-02-25 13:00:00,
2014-02-25 07:05:00,39.1,32.8,30.16,North,9,6.0,10.0,78,0.00,,---,0.00,0.00,VWS V14.01,2014-02-25 13:05:00,
2014-02-25 07:10:00,39.2,32.9,30.17,NNE,16,7.0,9.0,78,0.00,,---,0.00,0.00,VWS V14.01,2014-02-25 13:10:00,
2014-02-25 07:15:00,39.2,32.6,30.17,North,355,4.0,7.0,77,0.00,,---,0.00,0.00,VWS V14.01,2014-02-25 13:15:00,
2014-02-25 07:20:00,39.2,32.6,30.17,NNW,342,7.0,12.0,77,0.00,,---,0.00,5.00,VWS V14.01,2014-02-25 13:20:00,
2014-02-25 07:24:00,39.1,32.5,30.17,North,351,9.0,11.0,77,0.00,,---,0.00,9.00,VWS V14.01,2014-02-25 13:24:00,
2014-02-25 07:30:00,38.9,32.3,30.18,NNW,338,7.0,11.0,77,0.00,,---,0.00,14.00,VWS V14.01,2014-02-25 13:30:00,
2014-02-25 07:34:00,38.6,32.0,30.18,NNW,348,11.0,14.0,77,0.00,,---,0.00,18.00,VWS V14.01,2014-02-25 13:34:00,
2014-02-25 07:39:00,38.5,31.9,30.18,NW,308,6.0,10.0,77,0.00,,---,0.00,25.00,VWS V14.01,2014-02-25 13:39:00,
2014-02-25 07:44:00,38.4,31.8,30.18,NNW,338,7.0,10.0,77,0.00,,---,0.00,35.00,VWS V14.01,2014-02-25 13:44:00,
2014-02-25 07:49:00,38.2,31.6,30.18,NNW,335,6.0,9.0,77,0.00,,---,0.00,40.00,VWS V14.01,2014-02-25 13:49:00,
2014-02-25 07:54:00,38.1,31.5,30.19,NNW,330,13.0,14.0,77,0.00,,---,0.00,47.00,VWS V14.01,2014-02-25 13:54:00,
2014-02-25 07:59:00,38.1,30.9,30.19,NNW,333,11.0,15.0,75,0.00,,---,0.00,54.00,VWS V14.01,2014-02-25 13:59:00,
2014-02-25 08:04:00,38.2,31.3,30.19,NNW,335,6.0,13.0,76,0.00,,---,0.00,63.00,VWS V14.01,2014-02-25 14:04:00,
2014-02-25 08:09:00,38.1,30.9,30.19,North,351,11.0,16.0,75,0.00,,---,0.00,72.00,VWS V14.01,2014-02-25 14:09:00,
2014-02-25 08:14:00,38.1,30.2,30.19,North,355,7.0,13.0,73,0.00,,---,0.00,69.00,VWS V14.01,2014-02-25 14:14:00,
2014-02-25 08:19:00,38.1,29.9,30.20,NNE,32,11.0,16.0,72,0.00,,---,0.00,81.00,VWS V14.01,2014-02-25 14:19:00,
2014-02-25 08:24:00,38.1,29.9,30.20,NNW,337,4.0,13.0,72,0.00,,---,0.00,86.00,VWS V14.01,2014-02-25 14:24:00,
2014-02-25 08:29:00,38.1,29.9,30.20,North,360,12.0,13.0,72,0.00,,---,0.00,91.00,VWS V14.01,2014-02-25 14:29:00,
2014-02-25 08:34:00,38.1,29.9,30.20,North,5,15.0,17.0,72,0.00,,---,0.00,90.00,VWS V14.01,2014-02-25 14:34:00,
2014-02-25 08:39:00,38.1,30.2,30.21,North,351,6.0,11.0,73,0.00,,---,0.00,97.00,VWS V14.01,2014-02-25 14:39:00,
2014-02-25 08:44:00,37.8,30.3,30.21,NNW,338,11.0,16.0,74,0.00,,---,0.00,107.00,VWS V14.01,2014-02-25 14:44:00,
2014-02-25 08:49:00,37.5,30.0,30.21,North,360,7.0,14.0,74,0.00,,---,0.00,123.00,VWS V14.01,2014-02-25 14:49:00,
2014-02-25 08:54:00,37.5,30.0,30.21,North,350,13.0,18.0,74,0.00,,---,0.00,134.00,VWS V14.01,2014-02-25 14:54:00,
2014-02-25 08:59:00,37.5,30.0,30.22,NNE,20,8.0,13.0,74,0.00,,---,0.00,134.00,VWS V14.01,2014-02-25 14:59:00,
2014-02-25 09:04:00,37.5,29.6,30.22,NNW,333,12.0,18.0,73,0.00,,---,0.00,139.00,VWS V14.01,2014-02-25 15:04:00,
2014-02-25 09:09:00,37.4,29.5,30.22,NW,319,12.0,16.0,73,0.00,,---,0.00,135.00,VWS V14.01,2014-02-25 15:09:00,
2014-02-25 09:14:00,37.3,29.5,30.23,NNE,15,11.0,15.0,73,0.00,,---,0.00,135.00,VWS V14.01,2014-02-25 15:14:00,
2014-02-25 09:19:00,37.3,29.1,30.23,North,349,10.0,13.0,72,0.00,,---,0.00,130.00,VWS V14.01,2014-02-25 15:19:00,
2014-02-25 09:24:00,37.0,28.8,30.23,North,5,12.0,17.0,72,0.00,,---,0.00,135.00,VWS V14.01,2014-02-25 15:24:00,
2014-02-25 09:29:00,36.9,28.4,30.23,North,350,13.0,16.0,71,0.00,,---,0.00,160.00,VWS V14.01,2014-02-25 15:29:00,
2014-02-25 09:34:00,36.8,28.0,30.23,North,5,13.0,17.0,70,0.00,,---,0.00,162.00,VWS V14.01,2014-02-25 15:34:00,
2014-02-25 09:39:00,36.8,28.0,30.22,NNW,343,12.0,18.0,70,0.00,,---,0.00,171.00,VWS V14.01,2014-02-25 15:39:00,
2014-02-25 09:44:00,36.7,27.1,30.22,North,5,14.0,14.0,68,0.00,,---,0.00,160.00,VWS V14.01,2014-02-25 15:44:00,
2014-02-25 09:49:00,36.6,27.0,30.22,North,5,17.0,20.0,68,0.00,,---,0.00,192.00,VWS V14.01,2014-02-25 15:49:00,
2014-02-25 09:54:00,36.4,26.5,30.22,North,10,12.0,12.0,67,0.00,,---,0.00,186.00,VWS V14.01,2014-02-25 15:54:00,
2014-02-25 09:59:00,36.8,27.2,30.22,NNW,338,7.0,17.0,68,0.00,,---,0.00,207.00,VWS V14.01,2014-02-25 15:59:00,
2014-02-25 10:04:00,36.9,27.0,30.22,NE,38,11.0,13.0,67,0.00,,---,0.00,174.00,VWS V14.01,2014-02-25 16:04:00,
2014-02-25 10:09:00,36.9,27.0,30.22,NE,38,11.0,16.0,67,0.00,,---,0.00,200.00,VWS V14.01,2014-02-25 16:09:00,
2014-02-25 10:14:00,37.0,26.7,30.22,NNE,15,13.0,13.0,66,0.00,,---,0.00,190.00,VWS V14.01,2014-02-25 16:14:00,
2014-02-25 10:19:00,37.1,26.4,30.22,North,9,10.0,12.0,65,0.00,,---,0.00,197.00,VWS V14.01,2014-02-25 16:19:00,
2014-02-25 10:24:00,37.3,26.6,30.22,NNE,21,9.0,16.0,65,0.00,,---,0.00,216.00,VWS V14.01,2014-02-25 16:24:00,
2014-02-25 10:29:00,37.4,26.4,30.22,North,9,9.0,17.0,64,0.00,,---,0.00,193.00,VWS V14.01,2014-02-25 16:29:00,
2014-02-25 10:34:00,37.5,26.5,30.21,NE,44,9.0,10.0,64,0.00,,---,0.00,195.00,VWS V14.01,2014-02-25 16:34:00,
2014-02-25 10:39:00,37.8,26.7,30.21,NNW,333,6.0,13.0,64,0.00,,---,0.00,199.00,VWS V14.01,2014-02-25 16:39:00,
2014-02-25 10:44:00,38.0,26.5,30.21,NNE,22,9.0,12.0,63,0.00,,---,0.00,211.00,VWS V14.01,2014-02-25 16:44:00,
2014-02-25 10:49:00,38.2,26.3,30.21,NNE,22,11.0,12.0,62,0.00,,---,0.00,213.00,VWS V14.01,2014-02-25 16:49:00,
2014-02-25 10:54:00,38.1,26.2,30.22,NNE,25,12.0,15.0,62,0.00,,---,0.00,176.00,VWS V14.01,2014-02-25 16:54:00,
2014-02-25 10:59:00,38.0,26.1,30.21,NNW,341,5.0,9.0,62,0.00,,---,0.00,183.00,VWS V14.01,2014-02-25 16:59:00,
2014-02-25 11:04:00,38.2,26.3,30.22,NNW,336,9.0,14.0,62,0.00,,---,0.00,193.00,VWS V14.01,2014-02-25 17:04:00,
2014-02-25 11:09:00,38.3,26.0,30.21,North,351,7.0,12.0,61,0.00,,---,0.00,207.00,VWS V14.01,2014-02-25 17:09:00,
2014-02-25 11:14:00,38.5,26.2,30.21,NNW,342,9.0,13.0,61,0.00,,---,0.00,243.00,VWS V14.01,2014-02-25 17:14:00,
2014-02-25 11:19:00,38.9,26.6,30.21,North,360,10.0,18.0,61,0.00,,---,0.00,239.00,VWS V14.01,2014-02-25 17:19:00,
2014-02-25 11:24:00,38.8,26.1,30.21,NNW,344,9.0,12.0,60,0.00,,---,0.00,234.00,VWS V14.01,2014-02-25 17:24:00,
2014-02-25 11:29:00,39.2,26.5,30.21,NNE,17,10.0,12.0,60,0.00,,---,0.00,262.00,VWS V14.01,2014-02-25 17:29:00,
2014-02-25 11:34:00,39.2,26.1,30.20,North,5,15.0,18.0,59,0.00,,---,0.00,299.00,VWS V14.01,2014-02-25 17:34:00,
2014-02-25 11:39:00,39.5,26.4,30.20,NNE,32,9.0,14.0,59,0.00,,---,0.00,323.00,VWS V14.01,2014-02-25 17:39:00,
2014-02-25 11:44:00,39.6,25.6,30.20,North,5,10.0,12.0,57,0.00,,---,0.00,294.00,VWS V14.01,2014-02-25 17:44:00,
2014-02-25 11:49:00,39.7,25.7,30.20,NNE,19,15.0,15.0,57,0.00,,---,0.00,251.00,VWS V14.01,2014-02-25 17:49:00,
2014-02-25 11:54:00,39.7,25.7,30.20,North,5,9.0,13.0,57,0.00,,---,0.00,255.00,VWS V14.01,2014-02-25 17:54:00,
2014-02-25 11:59:00,39.9,25.9,30.19,North,9,11.0,13.0,57,0.00,,---,0.00,255.00,VWS V14.01,2014-02-25 17:59:00,
2014-02-25 12:04:00,39.8,25.0,30.19,North,11,10.0,14.0,55,0.00,,---,0.00,243.00,VWS V14.01,2014-02-25 18:04:00,
2014-02-25 12:09:00,40.0,25.1,30.19,NE,46,12.0,18.0,55,0.00,,---,0.00,244.00,VWS V14.01,2014-02-25 18:09:00,
2014-02-25 12:14:00,40.0,24.7,30.18,North,360,9.0,15.0,54,0.00,,---,0.00,230.00,VWS V14.01,2014-02-25 18:14:00,
2014-02-25 12:19:00,40.0,24.7,30.18,NNE,13,13.0,13.0,54,0.00,,---,0.00,220.00,VWS V14.01,2014-02-25 18:19:00,
2014-02-25 12:24:00,40.2,24.9,30.18,North,9,6.0,12.0,54,0.00,,---,0.00,216.00,VWS V14.01,2014-02-25 18:24:00,
2014-02-25 12:29:00,40.5,25.2,30.18,North,5,15.0,15.0,54,0.00,,---,0.00,211.00,VWS V14.01,2014-02-25 18:29:00,
2014-02-25 12:34:00,40.6,24.8,30.17,North,355,12.0,14.0,53,0.00,,---,0.00,218.00,VWS V14.01,2014-02-25 18:34:00,
2014-02-25 12:39:00,40.7,24.9,30.17,NE,49,12.0,15.0,53,0.00,,---,0.00,239.00,VWS V14.01,2014-02-25 18:39:00,
2014-02-25 12:42:00,40.7,24.5,30.17,North,5,12.0,15.0,52,0.00,,---,0.00,239.00,VWS V14.01,2014-02-25 18:42:00,
2014-02-25 12:47:00,40.6,24.4,30.17,NNE,32,6.0,11.0,52,0.00,,---,0.00,213.00,VWS V14.01,2014-02-25 18:47:00,
2014-02-25 12:52:00,40.9,24.6,30.17,NNE,17,13.0,13.0,52,0.00,,---,0.00,225.00,VWS V14.01,2014-02-25 18:52:00,
2014-02-25 12:57:00,41.0,25.6,30.17,North,355,9.0,15.0,54,0.00,,---,0.00,206.00,VWS V14.01,2014-02-25 18:57:00,
2014-02-25 13:02:00,41.0,24.3,30.16,North,9,7.0,7.0,51,0.00,,---,0.00,220.00,VWS V14.01,2014-02-25 19:02:00,
2014-02-25 13:07:00,41.1,24.4,30.16,North,5,9.0,13.0,51,0.00,,---,0.00,204.00,VWS V14.01,2014-02-25 19:07:00,
2014-02-25 13:12:00,41.2,24.5,30.16,NNE,30,9.0,12.0,51,0.00,,---,0.00,193.00,VWS V14.01,2014-02-25 19:12:00,
2014-02-25 13:17:00,41.3,24.5,30.16,North,5,10.0,11.0,51,0.00,,---,0.00,195.00,VWS V14.01,2014-02-25 19:17:00,
2014-02-25 13:22:00,41.4,24.2,30.16,NNE,20,7.0,16.0,50,0.00,,---,0.00,197.00,VWS V14.01,2014-02-25 19:22:00,
2014-02-25 13:27:00,41.3,24.1,30.15,NNE,23,4.0,10.0,50,0.00,,---,0.00,199.00,VWS V14.01,2014-02-25 19:27:00,
2014-02-25 13:32:00,41.5,24.3,30.14,North,10,5.0,13.0,50,0.00,,---,0.00,186.00,VWS V14.01,2014-02-25 19:32:00,
2014-02-25 13:37:00,41.7,24.5,30.14,NNW,342,7.0,13.0,50,0.00,,---,0.00,183.00,VWS V14.01,2014-02-25 19:37:00,
2014-02-25 13:42:00,41.8,24.5,30.14,NNE,27,10.0,13.0,50,0.00,,---,0.00,172.00,VWS V14.01,2014-02-25 19:42:00,
2014-02-25 13:46:00,42.0,24.7,30.14,NNW,340,14.0,15.0,50,0.00,,---,0.00,172.00,VWS V14.01,2014-02-25 19:46:00,
2014-02-25 13:51:00,42.0,24.2,30.13,NE,44,13.0,16.0,49,0.00,,---,0.00,179.00,VWS V14.01,2014-02-25 19:51:00,
2014-02-25 13:56:00,42.1,24.8,30.13,NNE,21,11.0,16.0,50,0.00,,---,0.00,178.00,VWS V14.01,2014-02-25 19:56:00,
2014-02-25 14:02:00,42.2,24.4,30.13,NNE,17,6.0,13.0,49,0.00,,---,0.00,160.00,VWS V14.01,2014-02-25 20:02:00,
2014-02-25 14:07:00,42.2,24.4,30.13,NNE,17,8.0,10.0,49,0.00,,---,0.00,167.00,VWS V14.01,2014-02-25 20:07:00,
2014-02-25 14:12:00,42.3,24.5,30.13,NNW,343,8.0,12.0,49,0.00,,---,0.00,153.00,VWS V14.01,2014-02-25 20:12:00,
2014-02-25 14:17:00,42.5,24.7,30.12,NNE,16,16.0,17.0,49,0.00,,---,0.00,160.00,VWS V14.01,2014-02-25 20:17:00,
2014-02-25 14:22:00,42.4,24.6,30.12,NNE,12,11.0,16.0,49,0.00,,---,0.00,148.00,VWS V14.01,2014-02-25 20:22:00,
2014-02-25 14:27:00,42.3,24.5,30.12,North,5,12.0,14.0,49,0.00,,---,0.00,141.00,VWS V14.01,2014-02-25 20:27:00,
2014-02-25 14:32:00,42.2,24.4,30.12,NNW,338,11.0,13.0,49,0.00,,---,0.00,153.00,VWS V14.01,2014-02-25 20:32:00,
2014-02-25 14:37:00,42.3,24.5,30.12,NE,36,9.0,12.0,49,0.00,,---,0.00,165.00,VWS V14.01,2014-02-25 20:37:00,
2014-02-25 14:42:00,42.3,24.5,30.12,NNE,13,12.0,14.0,49,0.00,,---,0.00,165.00,VWS V14.01,2014-02-25 20:42:00,
2014-02-25 14:47:00,42.3,24.5,30.12,North,5,14.0,16.0,49,0.00,,---,0.00,204.00,VWS V14.01,2014-02-25 20:47:00,
2014-02-25 14:52:00,42.4,24.1,30.12,North,11,11.0,15.0,48,0.00,,---,0.00,192.00,VWS V14.01,2014-02-25 20:52:00,
2014-02-25 14:57:00,42.3,24.5,30.11,NE,34,5.0,13.0,49,0.00,,---,0.00,179.00,VWS V14.01,2014-02-25 20:57:00,
2014-02-25 15:02:00,42.3,24.0,30.11,ENE,58,6.0,13.0,48,0.00,,---,0.00,178.00,VWS V14.01,2014-02-25 21:02:00,
2014-02-25 15:07:00,42.4,24.6,30.11,NNE,17,13.0,15.0,49,0.00,,---,0.00,137.00,VWS V14.01,2014-02-25 21:07:00,
2014-02-25 15:12:00,42.2,23.9,30.11,NNE,18,10.0,16.0,48,0.00,,---,0.00,142.00,VWS V14.01,2014-02-25 21:12:00,
2014-02-25 15:16:00,42.2,24.4,30.11,NNE,29,7.0,12.0,49,0.00,,---,0.00,142.00,VWS V14.01,2014-02-25 21:16:00,
2014-02-25 15:22:00,42.0,24.2,30.11,North,11,6.0,13.0,49,0.00,,---,0.00,137.00,VWS V14.01,2014-02-25 21:22:00,
2014-02-25 15:27:00,42.0,24.2,30.11,NE,35,5.0,11.0,49,0.00,,---,0.00,128.00,VWS V14.01,2014-02-25 21:27:00,
2014-02-25 15:32:00,42.2,24.4,30.10,NE,35,12.0,14.0,49,0.00,,---,0.00,160.00,VWS V14.01,2014-02-25 21:32:00,
2014-02-25 15:37:00,42.2,24.4,30.10,NNW,344,7.0,13.0,49,0.00,,---,0.00,176.00,VWS V14.01,2014-02-25 21:37:00,
2014-02-25 15:42:00,42.1,24.3,30.10,NE,36,11.0,12.0,49,0.00,,---,0.00,132.00,VWS V14.01,2014-02-25 21:42:00,
2014-02-25 15:47:00,42.2,24.4,30.10,North,355,6.0,9.0,49,0.00,,---,0.00,130.00,VWS V14.01,2014-02-25 21:47:00,
2014-02-25 15:51:00,42.2,24.9,30.10,NNE,22,14.0,14.0,50,0.00,,---,0.00,116.00,VWS V14.01,2014-02-25 21:51:00,
2014-02-25 15:56:00,42.1,24.8,30.10,NE,48,9.0,15.0,50,0.00,,---,0.00,113.00,VWS V14.01,2014-02-25 21:56:00,
2014-02-25 16:01:00,42.0,24.7,30.10,NNE,27,12.0,12.0,50,0.00,,---,0.00,114.00,VWS V14.01,2014-02-25 22:01:00,
2014-02-25 16:06:00,42.0,24.7,30.09,NNE,13,10.0,13.0,50,0.00,,---,0.00,98.00,VWS V14.01,2014-02-25 22:06:00,
2014-02-25 16:11:00,42.0,24.7,30.10,NNE,30,7.0,13.0,50,0.00,,---,0.00,83.00,VWS V14.01,2014-02-25 22:11:00,
2014-02-25 16:16:00,41.9,24.6,30.10,North,5,9.0,14.0,50,0.00,,---,0.00,81.00,VWS V14.01,2014-02-25 22:16:00,
2014-02-25 16:21:00,41.8,24.5,30.09,NE,44,7.0,13.0,50,0.00,,---,0.00,97.00,VWS V14.01,2014-02-25 22:21:00,
2014-02-25 16:26:00,41.7,24.5,30.09,NNE,29,11.0,14.0,50,0.00,,---,0.00,88.00,VWS V14.01,2014-02-25 22:26:00,
2014-02-25 16:31:00,41.5,24.3,30.09,NNE,24,7.0,16.0,50,0.00,,---,0.00,86.00,VWS V14.01,2014-02-25 22:31:00,
2014-02-25 16:36:00,41.5,24.3,30.09,NNE,26,6.0,11.0,50,0.00,,---,0.00,69.00,VWS V14.01,2014-02-25 22:36:00,
2014-02-25 16:41:00,41.4,24.2,30.10,NE,48,9.0,13.0,50,0.00,,---,0.00,72.00,VWS V14.01,2014-02-25 22:41:00,
2014-02-25 16:46:00,41.3,24.1,30.10,NE,36,10.0,14.0,50,0.00,,---,0.00,81.00,VWS V14.01,2014-02-25 22:46:00,
2014-02-25 16:51:00,41.3,24.1,30.10,North,9,8.0,12.0,50,0.00,,---,0.00,63.00,VWS V14.01,2014-02-25 22:51:00,
2014-02-25 16:56:00,41.4,24.6,30.10,ENE,66,13.0,13.0,51,0.00,,---,0.00,70.00,VWS V14.01,2014-02-25 22:56:00,
2014-02-25 17:01:00,41.3,24.1,30.10,ENE,62,9.0,14.0,50,0.00,,---,0.00,70.00,VWS V14.01,2014-02-25 23:01:00,
2014-02-25 17:06:00,41.3,24.1,30.10,NNE,32,5.0,6.0,50,0.00,,---,0.00,65.00,VWS V14.01,2014-02-25 23:06:00,
2014-02-25 17:11:00,41.2,24.0,30.11,NE,43,6.0,13.0,50,0.00,,---,0.00,53.00,VWS V14.01,2014-02-25 23:11:00,
2014-02-25 17:16:00,41.1,23.9,30.10,NE,45,10.0,12.0,50,0.00,,---,0.00,51.00,VWS V14.01,2014-02-25 23:16:00,
2014-02-25 17:21:00,41.0,23.8,30.10,NE,56,10.0,14.0,50,0.00,,---,0.00,53.00,VWS V14.01,2014-02-25 23:21:00,
2014-02-25 17:26:00,40.9,23.7,30.10,NE,38,9.0,15.0,50,0.00,,---,0.00,44.00,VWS V14.01,2014-02-25 23:26:00,
2014-02-25 17:31:00,40.8,23.6,30.10,NNE,26,8.0,11.0,50,0.00,,---,0.00,35.00,VWS V14.01,2014-02-25 23:31:00,
2014-02-25 17:36:00,40.7,23.5,30.10,NE,36,13.0,15.0,50,0.00,,---,0.00,33.00,VWS V14.01,2014-02-25 23:36:00,
2014-02-25 17:41:00,40.7,24.0,30.10,NNE,17,7.0,11.0,51,0.00,,---,0.00,28.00,VWS V14.01,2014-02-25 23:41:00,
2014-02-25 17:46:00,40.7,24.0,30.11,NE,49,8.0,13.0,51,0.00,,---,0.00,23.00,VWS V14.01,2014-02-25 23:46:00,
2014-02-25 17:51:00,40.6,23.9,30.11,NNE,17,6.0,13.0,51,0.00,,---,0.00,21.00,VWS V14.01,2014-02-25 23:51:00,
2014-02-25 17:56:00,40.6,23.9,30.11,NE,37,5.0,9.0,51,0.00,,---,0.00,16.00,VWS V14.01,2014-02-25 23:56:00,
2014-02-25 18:01:00,40.6,23.9,30.11,NE,39,10.0,15.0,51,0.00,,---,0.00,12.00,VWS V14.01,2014-02-26 00:01:00,
2014-02-25 18:06:00,40.5,23.8,30.11,NE,36,5.0,7.0,51,0.00,,---,0.00,9.00,VWS V14.01,2014-02-26 00:06:00,
2014-02-25 18:11:00,40.5,23.8,30.12,NE,49,6.0,13.0,51,0.00,,---,0.00,5.00,VWS V14.01,2014-02-26 00:11:00,
2014-02-25 18:16:00,40.4,24.2,30.12,East,83,4.0,7.0,52,0.00,,---,0.00,0.00,VWS V14.01,2014-02-26 00:16:00,
2014-02-25 18:21:00,40.4,24.2,30.12,ENE,70,7.0,7.0,52,0.00,,---,0.00,0.00,VWS V14.01,2014-02-26 00:21:00,
2014-02-25 18:26:00,40.3,23.6,30.12,NNE,33,9.0,14.0,51,0.00,,---,0.00,0.00,VWS V14.01,2014-02-26 00:26:00,
2014-02-25 18:31:00,40.3,24.1,30.12,NE,53,9.0,12.0,52,0.00,,---,0.00,0.00,VWS V14.01,2014-02-26 00:31:00,
2014-02-25 18:36:00,40.3,24.1,30.13,NNE,28,12.0,12.0,52,0.00,,---,0.00,0.00,VWS V14.01,2014-02-26 00:36:00,
2014-02-25 18:41:00,40.3,24.1,30.13,NE,35,12.0,12.0,52,0.00,,---,0.00,0.00,VWS V14.01,2014-02-26 00:41:00,
2014-02-25 18:46:00,40.3,24.1,30.13,NE,34,12.0,15.0,52,0.00,,---,0.00,0.00,VWS V14.01,2014-02-26 00:46:00,
2014-02-25 18:51:00,40.2,24.0,30.13,NE,44,8.0,12.0,52,0.00,,---,0.00,0.00,VWS V14.01,2014-02-26 00:51:00,
2014-02-25 18:56:00,40.2,24.0,30.14,North,355,3.0,7.0,52,0.00,,---,0.00,0.00,VWS V14.01,2014-02-26 00:56:00,
2014-02-25 19:01:00,40.2,24.5,30.14,NNE,23,3.0,6.0,53,0.00,,---,0.00,0.00,VWS V14.01,2014-02-26 01:01:00,
2014-02-25 19:06:00,40.2,24.5,30.14,NE,50,7.0,7.0,53,0.00,,---,0.00,0.00,VWS V14.01,2014-02-26 01:06:00,
2014-02-25 19:11:00,40.1,24.4,30.14,NE,42,11.0,13.0,53,0.00,,---,0.00,0.00,VWS V14.01,2014-02-26 01:11:00,
2014-02-25 19:16:00,40.1,23.9,30.14,NE,38,5.0,9.0,52,0.00,,---,0.00,0.00,VWS V14.01,2014-02-26 01:16:00,
2014-02-25 19:21:00,40.1,23.9,30.14,NE,34,10.0,12.0,52,0.00,,---,0.00,0.00,VWS V14.01,2014-02-26 01:21:00,
2014-02-25 19:26:00,40.1,23.9,30.14,NNE,29,11.0,11.0,52,0.00,,---,0.00,0.00,VWS V14.01,2014-02-26 01:26:00,
2014-02-25 19:31:00,40.1,23.9,30.15,NNE,28,7.0,10.0,52,0.00,,---,0.00,0.00,VWS V14.01,2014-02-26 01:31:00,
2014-02-25 19:36:00,40.1,24.4,30.15,NE,35,6.0,10.0,53,0.00,,---,0.00,0.00,VWS V14.01,2014-02-26 01:36:00,
2014-02-25 19:41:00,40.0,24.3,30.15,NNE,32,4.0,5.0,53,0.00,,---,0.00,0.00,VWS V14.01,2014-02-26 01:41:00,
2014-02-25 19:46:00,40.0,24.7,30.15,NNE,33,8.0,11.0,54,0.00,,---,0.00,0.00,VWS V14.01,2014-02-26 01:46:00,
2014-02-25 19:51:00,40.0,24.7,30.16,NNE,27,8.0,10.0,54,0.00,,---,0.00,0.00,VWS V14.01,2014-02-26 01:51:00,
2014-02-25 19:56:00,39.9,24.6,30.16,NE,35,12.0,13.0,54,0.00,,---,0.00,0.00,VWS V14.01,2014-02-26 01:56:00,
2014-02-25 20:01:00,39.9,24.2,30.16,NNE,13,12.0,12.0,53,0.00,,---,0.00,0.00,VWS V14.01,2014-02-26 02:01:00,
2014-02-25 20:06:00,39.9,24.6,30.16,NE,37,7.0,9.0,54,0.00,,---,0.00,0.00,VWS V14.01,2014-02-26 02:06:00,
2014-02-25 20:11:00,39.8,24.5,30.16,NE,44,12.0,17.0,54,0.00,,---,0.00,0.00,VWS V14.01,2014-02-26 02:11:00,
2014-02-25 20:16:00,39.8,24.1,30.16,NNE,30,9.0,13.0,53,0.00,,---,0.00,0.00,VWS V14.01,2014-02-26 02:16:00,
2014-02-25 20:21:00,39.9,24.6,30.16,NE,44,11.0,12.0,54,0.00,,---,0.00,0.00,VWS V14.01,2014-02-26 02:21:00,
2014-02-25 20:26:00,39.9,24.6,30.16,NE,36,5.0,13.0,54,0.00,,---,0.00,0.00,VWS V14.01,2014-02-26 02:26:00,
2014-02-25 20:31:00,39.9,24.6,30.17,NE,46,9.0,10.0,54,0.00,,---,0.00,0.00,VWS V14.01,2014-02-26 02:31:00,
2014-02-25 20:36:00,39.9,24.6,30.17,NNE,18,7.0,8.0,54,0.00,,---,0.00,0.00,VWS V14.01,2014-02-26 02:36:00,
2014-02-25 20:38:00,39.9,24.6,30.17,NE,35,6.0,10.0,54,0.00,,---,0.00,0.00,VWS V14.01,2014-02-26 02:38:00,
2014-02-25 20:43:00,39.9,24.6,30.17,NE,34,7.0,9.0,54,0.00,,---,0.00,0.00,VWS V14.01,2014-02-26 02:43:00,
2014-02-25 20:48:00,39.9,24.6,30.17,NE,56,6.0,7.0,54,0.00,,---,0.00,0.00,VWS V14.01,2014-02-26 02:48:00,
2014-02-25 20:53:00,39.9,24.6,30.18,NNE,13,11.0,11.0,54,0.00,,---,0.00,0.00,VWS V14.01,2014-02-26 02:53:00,
2014-02-25 20:58:00,39.9,24.6,30.18,North,5,6.0,9.0,54,0.00,,---,0.00,0.00,VWS V14.01,2014-02-26 02:58:00,
2014-02-25 21:03:00,40.0,24.7,30.18,NNE,14,7.0,11.0,54,0.00,,---,0.00,0.00,VWS V14.01,2014-02-26 03:03:00,
2014-02-25 21:08:00,40.0,24.7,30.18,NNE,15,5.0,7.0,54,0.00,,---,0.00,0.00,VWS V14.01,2014-02-26 03:08:00,
2014-02-25 21:13:00,40.0,24.7,30.18,NNE,18,5.0,12.0,54,0.00,,---,0.00,0.00,VWS V14.01,2014-02-26 03:13:00,
2014-02-25 21:18:00,40.0,24.7,30.19,NNE,28,12.0,13.0,54,0.00,,---,0.00,0.00,VWS V14.01,2014-02-26 03:18:00,
2014-02-25 21:23:00,40.1,24.8,30.20,North,5,7.0,11.0,54,0.00,,---,0.00,0.00,VWS V14.01,2014-02-26 03:23:00,
2014-02-25 21:28:00,40.1,24.8,30.20,North,5,10.0,10.0,54,0.00,,---,0.00,0.00,VWS V14.01,2014-02-26 03:28:00,
2014-02-25 21:33:00,40.1,24.8,30.21,NE,49,16.0,18.0,54,0.00,,---,0.00,0.00,VWS V14.01,2014-02-26 03:33:00,
2014-02-25 21:38:00,40.2,24.9,30.21,North,11,16.0,17.0,54,0.00,,---,0.00,0.00,VWS V14.01,2014-02-26 03:38:00,
2014-02-25 21:43:00,40.1,24.8,30.22,North,360,15.0,15.0,54,0.00,,---,0.00,0.00,VWS V14.01,2014-02-26 03:43:00,
2014-02-25 21:48:00,40.0,24.3,30.22,North,360,12.0,12.0,53,0.00,,---,0.00,0.00,VWS V14.01,2014-02-26 03:48:00,
2014-02-25 21:53:00,39.9,24.2,30.22,NNE,13,14.0,15.0,53,0.00,,---,0.00,0.00,VWS V14.01,2014-02-26 03:53:00,
2014-02-25 21:58:00,39.8,24.1,30.23,NNW,348,14.0,18.0,53,0.00,,---,0.00,0.00,VWS V14.01,2014-02-26 03:58:00,
2014-02-25 22:03:00,38.8,23.1,30.24,NE,49,11.0,16.0,53,0.00,,---,0.00,0.00,VWS V14.01,2014-02-26 04:03:00,
2014-02-25 22:08:00,38.2,23.5,30.25,NNE,14,20.0,20.0,55,0.00,,---,0.00,0.00,VWS V14.01,2014-02-26 04:08:00,
2014-02-25 22:13:00,37.7,23.0,30.25,NNW,343,19.0,22.0,55,0.00,,---,0.00,0.00,VWS V14.01,2014-02-26 04:13:00,
2014-02-25 22:18:00,37.3,22.6,30.25,NNE,19,19.0,23.0,55,0.00,,---,0.00,0.00,VWS V14.01,2014-02-26 04:18:00,
2014-02-25 22:23:00,36.9,22.7,30.26,North,351,12.0,16.0,56,0.00,,---,0.00,0.00,VWS V14.01,2014-02-26 04:23:00,
2014-02-25 22:28:00,36.4,22.6,30.27,NNE,14,22.0,22.0,57,0.00,,---,0.00,0.00,VWS V14.01,2014-02-26 04:28:00,
2014-02-25 22:33:00,36.0,22.3,30.27,North,5,16.0,19.0,57,0.00,,---,0.00,0.00,VWS V14.01,2014-02-26 04:33:00,
2014-02-25 22:38:00,35.6,22.3,30.28,North,9,20.0,22.0,58,0.00,,---,0.00,0.00,VWS V14.01,2014-02-26 04:38:00,
2014-02-25 22:43:00,35.2,21.9,30.28,North,5,19.0,20.0,58,0.00,,---,0.00,0.00,VWS V14.01,2014-02-26 04:43:00,
2014-02-25 22:48:00,34.8,22.0,30.29,NNW,342,20.0,20.0,59,0.00,,---,0.00,0.00,VWS V14.01,2014-02-26 04:48:00,
2014-02-25 22:53:00,34.6,21.8,30.29,North,9,14.0,20.0,59,0.00,,---,0.00,0.00,VWS V14.01,2014-02-26 04:53:00,
2014-02-25 22:58:00,34.5,22.1,30.29,North,10,24.0,24.0,60,0.00,,---,0.00,0.00,VWS V14.01,2014-02-26 04:58:00,
2014-02-25 23:01:00,34.4,22.0,30.30,NNE,17,15.0,20.0,60,0.00,,---,0.00,0.00,VWS V14.01,2014-02-26 05:01:00,
2014-02-25 23:06:00,34.0,21.6,30.30,NNE,24,23.0,26.0,60,0.00,,---,0.00,0.00,VWS V14.01,2014-02-26 05:06:00,
2014-02-25 23:11:00,33.6,21.6,30.30,NNE,13,19.0,21.0,61,0.00,,---,0.00,0.00,VWS V14.01,2014-02-26 05:11:00,
2014-02-25 23:16:00,33.4,21.4,30.31,NNW,329,16.0,26.0,61,0.00,,---,0.00,0.00,VWS V14.01,2014-02-26 05:16:00,
2014-02-25 23:21:00,33.2,21.2,30.31,North,360,17.0,21.0,61,0.00,,---,0.00,0.00,VWS V14.01,2014-02-26 05:21:00,
2014-02-25 23:26:00,33.1,21.5,30.32,NNE,15,13.0,18.0,62,0.00,,---,0.00,0.00,VWS V14.01,2014-02-26 05:26:00,
2014-02-25 23:30:00,33.1,21.5,30.32,North,5,18.0,23.0,62,0.00,,---,0.00,0.00,VWS V14.01,2014-02-26 05:30:00,
2014-02-25 23:35:00,32.6,21.0,30.32,NNW,344,22.0,22.0,62,0.00,,---,0.00,0.00,VWS V14.01,2014-02-26 05:35:00,
2014-02-25 23:40:00,32.1,20.9,30.32,NNE,25,15.0,20.0,63,0.00,,---,0.00,0.00,VWS V14.01,2014-02-26 05:40:00,
2014-02-25 23:45:00,31.8,20.7,30.33,NNE,32,19.0,21.0,63,0.00,,---,0.00,0.00,VWS V14.01,2014-02-26 05:45:00,
2014-02-25 23:50:00,31.5,20.7,30.33,NNE,21,15.0,15.0,64,0.00,,---,0.00,0.00,VWS V14.01,2014-02-26 05:50:00,
2014-02-25 23:55:00,31.4,21.0,30.33,NNE,18,9.0,12.0,65,0.00,,---,0.00,0.00,VWS V14.01,2014-02-26 05:55:00,